Terminal Aerodrome Forecast
Issued by NWS Binghamton, NY

Home | Current Version | Previous Version | Text Only | Print | Product List | Glossary On
Versions: 1 2 3 4 5 6 7 8 9 10 11 12 13 14 15 16 17 18 19 20
860
FTUS41 KBGM 210830 AAB
TAFBGM
TAF AMD
KBGM 210830Z 2109/2206 VRB03KT P6SM SKC
      TEMPO 2109/2112 1 1/2SM BR SKC
     FM211300 35004KT P6SM SKC=

USA.gov is the U.S. government's official web portal to all federal, state and local government web resources and services.